Time,TemperatureF,DewpointF,PressureIn,WindDirection,WindDirectionDegrees,WindSpeedMPH,WindSpeedGustMPH,Humidity,HourlyPrecipIn,Conditions,Clouds,dailyrainin,SoftwareType,DateUTC
2013-02-13 00:00:00,17.9,14.4,29.82,West,261,1.0,2.0,86,0.00,,,0.00,vanprod-2.3,2013-02-13 06:00:00,
2013-02-13 00:05:00,17.8,14.3,29.82,West,261,1.0,2.0,86,0.00,,,0.00,vanprod-2.3,2013-02-13 06:05:00,
2013-02-13 00:10:00,17.9,14.4,29.81,West,261,1.0,0.0,86,0.00,,,0.00,vanprod-2.3,2013-02-13 06:10:00,
2013-02-13 00:15:00,18.1,14.6,29.81,West,261,1.0,2.0,86,0.00,,,0.00,vanprod-2.3,2013-02-13 06:15:00,
2013-02-13 00:20:00,17.9,14.4,29.81,West,261,1.0,2.0,86,0.00,,,0.00,vanprod-2.3,2013-02-13 06:20:00,
2013-02-13 00:25:00,17.9,14.4,29.81,West,261,1.0,1.0,86,0.00,,,0.00,vanprod-2.3,2013-02-13 06:25:00,
2013-02-13 00:30:00,17.9,14.4,29.81,West,261,0.0,1.0,86,0.00,,,0.00,vanprod-2.3,2013-02-13 06:30:00,
2013-02-13 00:35:00,17.8,14.3,29.81,West,261,0.0,0.0,86,0.00,,,0.00,vanprod-2.3,2013-02-13 06:35:00,
2013-02-13 00:40:00,17.8,14.3,29.81,West,261,0.0,0.0,86,0.00,,,0.00,vanprod-2.3,2013-02-13 06:40:00,
2013-02-13 00:45:00,17.8,14.3,29.81,West,261,0.0,0.0,86,0.00,,,0.00,vanprod-2.3,2013-02-13 06:45:00,
2013-02-13 00:50:00,17.8,14.6,29.80,West,261,0.0,0.0,87,0.00,,,0.00,vanprod-2.3,2013-02-13 06:50:00,
2013-02-13 00:55:00,17.8,14.6,29.80,West,261,0.0,0.0,87,0.00,,,0.00,vanprod-2.3,2013-02-13 06:55:00,
2013-02-13 01:00:00,18.1,14.9,29.80,West,261,1.0,1.0,87,0.00,,,0.00,vanprod-2.3,2013-02-13 07:00:00,
2013-02-13 01:05:00,17.9,14.4,29.80,West,261,1.0,1.0,86,0.00,,,0.00,vanprod-2.3,2013-02-13 07:05:00,
2013-02-13 01:10:00,17.8,14.3,29.80,West,261,0.0,0.0,86,0.00,,,0.00,vanprod-2.3,2013-02-13 07:10:00,
2013-02-13 01:15:00,17.6,14.1,29.80,West,261,1.0,2.0,86,0.00,,,0.00,vanprod-2.3,2013-02-13 07:15:00,
2013-02-13 01:20:00,17.5,14.0,29.80,West,261,0.0,0.0,86,0.00,,,0.00,vanprod-2.3,2013-02-13 07:20:00,
2013-02-13 01:25:00,17.3,13.8,29.80,West,261,0.0,0.0,86,0.00,,,0.00,vanprod-2.3,2013-02-13 07:25:00,
2013-02-13 01:30:00,17.5,14.3,29.80,West,261,1.0,2.0,87,0.00,,,0.00,vanprod-2.3,2013-02-13 07:30:00,
2013-02-13 01:35:00,17.6,14.4,29.80,West,261,0.0,0.0,87,0.00,,,0.00,vanprod-2.3,2013-02-13 07:35:00,
2013-02-13 01:40:00,17.8,14.6,29.80,West,261,0.0,0.0,87,0.00,,,0.00,vanprod-2.3,2013-02-13 07:40:00,
2013-02-13 01:45:00,17.9,14.7,29.80,West,261,0.0,0.0,87,0.00,,,0.00,vanprod-2.3,2013-02-13 07:45:00,
2013-02-13 01:50:00,18.1,14.9,29.80,West,261,0.0,0.0,87,0.00,,,0.00,vanprod-2.3,2013-02-13 07:50:00,
2013-02-13 01:55:00,18.3,15.1,29.80,West,261,0.0,0.0,87,0.00,,,0.00,vanprod-2.3,2013-02-13 07:55:00,
2013-02-13 02:00:00,18.4,15.2,29.80,West,261,0.0,0.0,87,0.00,,,0.00,vanprod-2.3,2013-02-13 08:00:00,
2013-02-13 02:05:00,18.4,15.2,29.79,West,261,0.0,0.0,87,0.00,,,0.00,vanprod-2.3,2013-02-13 08:05:00,
2013-02-13 02:10:00,18.6,15.4,29.79,West,261,0.0,0.0,87,0.00,,,0.00,vanprod-2.3,2013-02-13 08:10:00,
2013-02-13 02:15:00,18.7,15.5,29.80,West,261,0.0,0.0,87,0.00,,,0.00,vanprod-2.3,2013-02-13 08:15:00,
2013-02-13 02:20:00,18.6,15.4,29.80,West,261,0.0,0.0,87,0.00,,,0.00,vanprod-2.3,2013-02-13 08:20:00,
2013-02-13 02:25:00,18.6,15.4,29.80,West,261,0.0,0.0,87,0.00,,,0.00,vanprod-2.3,2013-02-13 08:25:00,
2013-02-13 02:30:00,18.4,15.2,29.79,West,261,0.0,0.0,87,0.00,,,0.00,vanprod-2.3,2013-02-13 08:30:00,
2013-02-13 02:35:00,18.4,15.2,29.79,West,261,0.0,0.0,87,0.00,,,0.00,vanprod-2.3,2013-02-13 08:35:00,
2013-02-13 02:40:00,18.6,15.4,29.80,West,261,0.0,0.0,87,0.00,,,0.00,vanprod-2.3,2013-02-13 08:40:00,
2013-02-13 02:45:00,18.6,15.6,29.80,West,261,0.0,0.0,88,0.00,,,0.00,vanprod-2.3,2013-02-13 08:45:00,
2013-02-13 02:50:00,18.7,15.7,29.79,West,261,0.0,0.0,88,0.00,,,0.00,vanprod-2.3,2013-02-13 08:50:00,
2013-02-13 02:55:00,18.9,15.9,29.79,West,261,0.0,0.0,88,0.00,,,0.00,vanprod-2.3,2013-02-13 08:55:00,
2013-02-13 03:00:00,18.9,15.9,29.78,West,261,0.0,0.0,88,0.00,,,0.00,vanprod-2.3,2013-02-13 09:00:00,
2013-02-13 03:05:00,19.0,16.0,29.78,West,261,0.0,0.0,88,0.00,,,0.00,vanprod-2.3,2013-02-13 09:05:00,
2013-02-13 03:10:00,19.0,16.0,29.78,West,261,0.0,0.0,88,0.00,,,0.00,vanprod-2.3,2013-02-13 09:10:00,
2013-02-13 03:15:00,19.2,16.5,29.78,West,261,0.0,0.0,89,0.00,,,0.00,vanprod-2.3,2013-02-13 09:15:00,
2013-02-13 03:20:00,19.2,16.2,29.78,West,261,1.0,2.0,88,0.00,,,0.00,vanprod-2.3,2013-02-13 09:20:00,
2013-02-13 03:25:00,19.4,16.7,29.78,West,261,1.0,2.0,89,0.00,,,0.00,vanprod-2.3,2013-02-13 09:25:00,
2013-02-13 03:30:00,19.7,17.0,29.78,West,261,0.0,0.0,89,0.00,,,0.00,vanprod-2.3,2013-02-13 09:30:00,
2013-02-13 03:35:00,19.7,17.0,29.78,West,261,1.0,2.0,89,0.00,,,0.00,vanprod-2.3,2013-02-13 09:35:00,
2013-02-13 03:40:00,19.8,17.1,29.78,West,261,1.0,1.0,89,0.00,,,0.00,vanprod-2.3,2013-02-13 09:40:00,
2013-02-13 03:45:00,20.0,17.3,29.78,West,261,1.0,1.0,89,0.00,,,0.00,vanprod-2.3,2013-02-13 09:45:00,
2013-02-13 03:50:00,20.1,17.4,29.78,West,261,1.0,0.0,89,0.00,,,0.00,vanprod-2.3,2013-02-13 09:50:00,
2013-02-13 03:55:00,20.1,17.4,29.78,West,261,0.0,0.0,89,0.00,,,0.00,vanprod-2.3,2013-02-13 09:55:00,
2013-02-13 04:00:00,20.3,17.6,29.77,West,261,0.0,0.0,89,0.00,,,0.00,vanprod-2.3,2013-02-13 10:00:00,
2013-02-13 04:05:00,20.5,17.8,29.77,West,261,0.0,0.0,89,0.00,,,0.00,vanprod-2.3,2013-02-13 10:05:00,
2013-02-13 04:10:00,20.6,17.9,29.77,West,261,0.0,0.0,89,0.00,,,0.00,vanprod-2.3,2013-02-13 10:10:00,
2013-02-13 04:15:00,20.8,18.1,29.77,West,261,0.0,0.0,89,0.00,,,0.00,vanprod-2.3,2013-02-13 10:15:00,
2013-02-13 04:20:00,21.1,18.1,29.77,West,261,0.0,0.0,88,0.00,,,0.00,vanprod-2.3,2013-02-13 10:20:00,
2013-02-13 04:25:00,21.3,18.3,29.77,West,261,0.0,0.0,88,0.00,,,0.00,vanprod-2.3,2013-02-13 10:25:00,
2013-02-13 04:30:00,21.4,18.4,29.77,West,261,1.0,3.0,88,0.00,,,0.00,vanprod-2.3,2013-02-13 10:30:00,
2013-02-13 04:35:00,21.6,18.6,29.77,West,261,1.0,2.0,88,0.00,,,0.00,vanprod-2.3,2013-02-13 10:35:00,
2013-02-13 04:40:00,21.7,18.7,29.77,West,261,1.0,1.0,88,0.00,,,0.00,vanprod-2.3,2013-02-13 10:40:00,
2013-02-13 04:45:00,21.7,18.7,29.77,West,261,1.0,1.0,88,0.00,,,0.00,vanprod-2.3,2013-02-13 10:45:00,
2013-02-13 04:50:00,21.9,18.9,29.77,West,261,0.0,0.0,88,0.00,,,0.00,vanprod-2.3,2013-02-13 10:50:00,
2013-02-13 04:55:00,21.9,18.9,29.76,West,261,0.0,0.0,88,0.00,,,0.00,vanprod-2.3,2013-02-13 10:55:00,
2013-02-13 05:00:00,22.0,19.0,29.76,West,261,0.0,0.0,88,0.00,,,0.00,vanprod-2.3,2013-02-13 11:00:00,
2013-02-13 05:05:00,22.2,19.2,29.76,West,261,0.0,1.0,88,0.00,,,0.00,vanprod-2.3,2013-02-13 11:05:00,
2013-02-13 05:10:00,22.2,19.2,29.76,West,261,1.0,2.0,88,0.00,,,0.00,vanprod-2.3,2013-02-13 11:10:00,
2013-02-13 05:15:00,22.4,19.4,29.75,West,261,1.0,2.0,88,0.00,,,0.00,vanprod-2.3,2013-02-13 11:15:00,
2013-02-13 05:20:00,22.7,19.7,29.75,West,261,2.0,2.0,88,0.00,,,0.00,vanprod-2.3,2013-02-13 11:20:00,
2013-02-13 05:25:00,22.8,19.8,29.75,West,261,2.0,2.0,88,0.00,,,0.00,vanprod-2.3,2013-02-13 11:25:00,
2013-02-13 05:30:00,23.0,20.0,29.74,West,261,0.0,0.0,88,0.00,,,0.00,vanprod-2.3,2013-02-13 11:30:00,
2013-02-13 05:35:00,23.1,19.8,29.74,West,261,1.0,2.0,87,0.00,,,0.00,vanprod-2.3,2013-02-13 11:35:00,
2013-02-13 05:40:00,23.4,20.1,29.74,West,261,1.0,2.0,87,0.00,,,0.00,vanprod-2.3,2013-02-13 11:40:00,
2013-02-13 05:45:00,23.6,20.3,29.74,West,261,1.0,0.0,87,0.00,,,0.00,vanprod-2.3,2013-02-13 11:45:00,
2013-02-13 05:50:00,23.6,20.0,29.74,West,261,0.0,0.0,86,0.00,,,0.00,vanprod-2.3,2013-02-13 11:50:00,
2013-02-13 05:55:00,23.6,20.3,29.73,West,261,0.0,0.0,87,0.00,,,0.00,vanprod-2.3,2013-02-13 11:55:00,
2013-02-13 06:00:00,23.6,20.0,29.73,West,261,0.0,0.0,86,0.00,,,0.00,vanprod-2.3,2013-02-13 12:00:00,
2013-02-13 06:05:00,23.6,20.0,29.73,West,261,0.0,1.0,86,0.00,,,0.00,vanprod-2.3,2013-02-13 12:05:00,
2013-02-13 06:10:00,23.7,20.1,29.73,West,261,1.0,1.0,86,0.00,,,0.00,vanprod-2.3,2013-02-13 12:10:00,
2013-02-13 06:15:00,24.0,20.4,29.73,West,261,0.0,0.0,86,0.00,,,0.00,vanprod-2.3,2013-02-13 12:15:00,
2013-02-13 06:20:00,24.0,20.4,29.72,West,261,0.0,0.0,86,0.00,,,0.00,vanprod-2.3,2013-02-13 12:20:00,
2013-02-13 06:25:00,24.0,20.4,29.72,West,261,0.0,0.0,86,0.00,,,0.00,vanprod-2.3,2013-02-13 12:25:00,
2013-02-13 06:30:00,24.2,20.6,29.72,West,261,1.0,2.0,86,0.00,,,0.00,vanprod-2.3,2013-02-13 12:30:00,
2013-02-13 06:35:00,24.3,20.4,29.72,West,261,1.0,2.0,85,0.00,,,0.00,vanprod-2.3,2013-02-13 12:35:00,
2013-02-13 06:40:00,24.5,20.6,29.72,West,261,1.0,1.0,85,0.00,,,0.00,vanprod-2.3,2013-02-13 12:40:00,
2013-02-13 06:45:00,24.5,20.6,29.72,West,261,2.0,2.0,85,0.00,,,0.00,vanprod-2.3,2013-02-13 12:45:00,
2013-02-13 06:50:00,24.3,20.4,29.72,West,261,1.0,0.0,85,0.00,,,0.00,vanprod-2.3,2013-02-13 12:50:00,
2013-02-13 06:55:00,24.2,20.4,29.72,West,261,0.0,0.0,85,0.00,,,0.00,vanprod-2.3,2013-02-13 12:55:00,
2013-02-13 07:00:00,24.0,20.2,29.72,West,261,0.0,0.0,85,0.00,,,0.00,vanprod-2.3,2013-02-13 13:00:00,
2013-02-13 07:05:00,24.0,20.2,29.71,West,261,0.0,1.0,85,0.00,,,0.00,vanprod-2.3,2013-02-13 13:05:00,
2013-02-13 07:10:00,23.9,20.1,29.72,West,261,0.0,1.0,85,0.00,,,0.00,vanprod-2.3,2013-02-13 13:10:00,
2013-02-13 07:15:00,23.9,20.3,29.72,West,261,0.0,0.0,86,0.00,,,0.00,vanprod-2.3,2013-02-13 13:15:00,
2013-02-13 07:20:00,23.7,20.1,29.71,West,261,0.0,0.0,86,0.00,,,0.00,vanprod-2.3,2013-02-13 13:20:00,
2013-02-13 07:25:00,23.6,20.0,29.71,West,261,0.0,0.0,86,0.00,,,0.00,vanprod-2.3,2013-02-13 13:25:00,
2013-02-13 07:30:00,23.6,20.0,29.71,West,261,0.0,0.0,86,0.00,,,0.00,vanprod-2.3,2013-02-13 13:30:00,
2013-02-13 07:35:00,23.6,20.0,29.71,West,261,0.0,0.0,86,0.00,,,0.00,vanprod-2.3,2013-02-13 13:35:00,
2013-02-13 07:40:00,23.6,20.0,29.71,West,261,0.0,0.0,86,0.00,,,0.00,vanprod-2.3,2013-02-13 13:40:00,
2013-02-13 07:45:00,23.6,20.0,29.71,West,261,1.0,1.0,86,0.00,,,0.00,vanprod-2.3,2013-02-13 13:45:00,
2013-02-13 07:50:00,23.7,20.1,29.71,West,261,0.0,0.0,86,0.00,,,0.00,vanprod-2.3,2013-02-13 13:50:00,
2013-02-13 07:55:00,23.7,20.1,29.71,West,261,1.0,2.0,86,0.00,,,0.00,vanprod-2.3,2013-02-13 13:55:00,
2013-02-13 08:00:00,23.9,20.3,29.71,West,261,0.0,1.0,86,0.00,,,0.00,vanprod-2.3,2013-02-13 14:00:00,
2013-02-13 08:05:00,23.9,20.1,29.71,West,261,1.0,0.0,85,0.00,,,0.00,vanprod-2.3,2013-02-13 14:05:00,
2013-02-13 08:10:00,24.0,20.2,29.71,West,261,1.0,2.0,85,0.00,,,0.00,vanprod-2.3,2013-02-13 14:10:00,
2013-02-13 08:15:00,24.3,20.4,29.71,West,261,1.0,1.0,85,0.00,,,0.00,vanprod-2.3,2013-02-13 14:15:00,
2013-02-13 08:20:00,24.5,20.4,29.71,West,261,1.0,0.0,84,0.00,,,0.00,vanprod-2.3,2013-02-13 14:20:00,
2013-02-13 08:25:00,24.8,20.7,29.71,West,261,1.0,2.0,84,0.00,,,0.00,vanprod-2.3,2013-02-13 14:25:00,
2013-02-13 08:30:00,24.8,20.4,29.71,West,261,2.0,2.0,83,0.00,,,0.00,vanprod-2.3,2013-02-13 14:30:00,
2013-02-13 08:35:00,24.9,20.5,29.71,West,261,0.0,0.0,83,0.00,,,0.00,vanprod-2.3,2013-02-13 14:35:00,
2013-02-13 08:40:00,25.2,20.8,29.71,West,261,1.0,2.0,83,0.00,,,0.00,vanprod-2.3,2013-02-13 14:40:00,
2013-02-13 08:45:00,25.3,20.6,29.71,West,261,2.0,2.0,82,0.00,,,0.00,vanprod-2.3,2013-02-13 14:45:00,
2013-02-13 08:50:00,25.6,20.6,29.71,West,261,0.0,0.0,81,0.00,,,0.00,vanprod-2.3,2013-02-13 14:50:00,
2013-02-13 08:55:00,26.1,21.4,29.71,West,261,0.0,0.0,82,0.00,,,0.00,vanprod-2.3,2013-02-13 14:55:00,
2013-02-13 09:00:00,26.4,21.1,29.71,West,261,1.0,0.0,80,0.00,,,0.00,vanprod-2.3,2013-02-13 15:00:00,
2013-02-13 09:05:00,27.0,21.7,29.71,West,261,1.0,1.0,80,0.00,,,0.00,vanprod-2.3,2013-02-13 15:05:00,
2013-02-13 09:10:00,27.0,21.7,29.71,West,261,4.0,6.0,80,0.00,,,0.00,vanprod-2.3,2013-02-13 15:10:00,
2013-02-13 09:15:00,27.0,21.7,29.71,West,261,6.0,6.0,80,0.00,,,0.00,vanprod-2.3,2013-02-13 15:15:00,
2013-02-13 09:20:00,27.0,21.7,29.71,West,261,6.0,0.0,80,0.00,,,0.00,vanprod-2.3,2013-02-13 15:20:00,
2013-02-13 09:25:00,27.0,21.7,29.71,West,261,6.0,0.0,80,0.00,,,0.00,vanprod-2.3,2013-02-13 15:25:00,
2013-02-13 09:30:00,27.0,21.7,29.71,West,261,6.0,0.0,80,0.00,,,0.00,vanprod-2.3,2013-02-13 15:30:00,
2013-02-13 09:35:00,27.0,21.7,29.70,West,261,6.0,0.0,80,0.00,,,0.00,vanprod-2.3,2013-02-13 15:35:00,
2013-02-13 09:40:00,27.0,21.7,29.70,West,261,6.0,0.0,80,0.00,,,0.00,vanprod-2.3,2013-02-13 15:40:00,
2013-02-13 09:45:00,27.0,21.7,29.70,West,261,6.0,0.0,80,0.00,,,0.00,vanprod-2.3,2013-02-13 15:45:00,
2013-02-13 09:50:00,27.0,21.7,29.70,West,261,6.0,0.0,80,0.00,,,0.00,vanprod-2.3,2013-02-13 15:50:00,
2013-02-13 09:55:00,27.0,21.7,29.70,West,261,6.0,0.0,80,0.00,,,0.00,vanprod-2.3,2013-02-13 15:55:00,
2013-02-13 10:00:00,27.0,21.7,29.70,West,261,6.0,0.0,80,0.00,,,0.00,vanprod-2.3,2013-02-13 16:00:00,
2013-02-13 10:05:00,27.0,21.7,29.70,West,261,6.0,0.0,80,0.00,,,0.00,vanprod-2.3,2013-02-13 16:05:00,
2013-02-13 10:10:00,27.0,21.7,29.69,West,261,6.0,0.0,80,0.00,,,0.00,vanprod-2.3,2013-02-13 16:10:00,
2013-02-13 10:15:00,27.0,21.7,29.69,West,261,6.0,0.0,80,0.00,,,0.00,vanprod-2.3,2013-02-13 16:15:00,
2013-02-13 10:20:00,27.0,21.7,29.69,West,261,6.0,0.0,80,0.00,,,0.00,vanprod-2.3,2013-02-13 16:20:00,
2013-02-13 10:25:00,27.0,21.7,29.69,West,261,6.0,0.0,80,0.00,,,0.00,vanprod-2.3,2013-02-13 16:25:00,
2013-02-13 10:30:00,27.0,21.7,29.69,West,261,6.0,0.0,80,0.00,,,0.00,vanprod-2.3,2013-02-13 16:30:00,
2013-02-13 10:35:00,27.0,21.7,29.69,West,261,6.0,0.0,80,0.00,,,0.00,vanprod-2.3,2013-02-13 16:35:00,
2013-02-13 10:40:00,27.0,21.7,29.69,West,261,6.0,0.0,80,0.00,,,0.00,vanprod-2.3,2013-02-13 16:40:00,
2013-02-13 10:45:00,27.0,21.7,29.69,West,261,6.0,0.0,80,0.00,,,0.00,vanprod-2.3,2013-02-13 16:45:00,
2013-02-13 10:50:00,27.0,21.7,29.69,West,261,6.0,0.0,80,0.00,,,0.00,vanprod-2.3,2013-02-13 16:50:00,
2013-02-13 10:55:00,27.0,21.7,29.68,West,261,6.0,0.0,80,0.00,,,0.00,vanprod-2.3,2013-02-13 16:55:00,
2013-02-13 11:00:00,27.0,21.7,29.68,West,261,6.0,0.0,80,0.00,,,0.00,vanprod-2.3,2013-02-13 17:00:00,
2013-02-13 11:05:00,27.0,21.7,29.68,West,261,6.0,0.0,80,0.00,,,0.00,vanprod-2.3,2013-02-13 17:05:00,
2013-02-13 11:10:00,27.0,21.7,29.68,West,261,6.0,0.0,80,0.00,,,0.00,vanprod-2.3,2013-02-13 17:10:00,
2013-02-13 11:15:00,27.0,21.7,29.68,West,261,6.0,0.0,80,0.00,,,0.00,vanprod-2.3,2013-02-13 17:15:00,
2013-02-13 11:20:00,27.0,21.7,29.68,West,261,6.0,0.0,80,0.00,,,0.00,vanprod-2.3,2013-02-13 17:20:00,
2013-02-13 11:25:00,27.0,21.7,29.68,West,261,6.0,0.0,80,0.00,,,0.00,vanprod-2.3,2013-02-13 17:25:00,
2013-02-13 11:30:00,27.0,21.7,29.68,West,261,6.0,0.0,80,0.00,,,0.00,vanprod-2.3,2013-02-13 17:30:00,
2013-02-13 11:35:00,27.0,21.7,29.68,West,261,6.0,0.0,80,0.00,,,0.00,vanprod-2.3,2013-02-13 17:35:00,
2013-02-13 11:40:00,27.0,21.7,29.68,WSW,257,6.0,6.0,80,0.00,,,0.00,vanprod-2.3,2013-02-13 17:40:00,
2013-02-13 11:45:00,27.0,21.7,29.68,WSW,257,6.0,6.0,80,0.00,,,0.00,vanprod-2.3,2013-02-13 17:45:00,
2013-02-13 11:50:00,27.0,21.7,29.68,WSW,257,6.0,0.0,80,0.00,,,0.00,vanprod-2.3,2013-02-13 17:50:00,
2013-02-13 11:55:00,27.0,21.7,29.68,WSW,257,6.0,0.0,80,0.00,,,0.00,vanprod-2.3,2013-02-13 17:55:00,
2013-02-13 12:00:00,27.0,21.7,29.67,WSW,257,6.0,0.0,80,0.00,,,0.00,vanprod-2.3,2013-02-13 18:00:00,
2013-02-13 12:05:00,27.0,21.7,29.67,WSW,257,6.0,0.0,80,0.00,,,0.00,vanprod-2.3,2013-02-13 18:05:00,
2013-02-13 12:10:00,27.0,21.7,29.66,WSW,257,6.0,0.0,80,0.00,,,0.00,vanprod-2.3,2013-02-13 18:10:00,
2013-02-13 12:15:00,27.0,21.7,29.66,WSW,257,6.0,0.0,80,0.00,,,0.00,vanprod-2.3,2013-02-13 18:15:00,
2013-02-13 12:20:00,27.0,21.7,29.66,WSW,257,6.0,0.0,80,0.00,,,0.00,vanprod-2.3,2013-02-13 18:20:00,
2013-02-13 12:25:00,27.0,21.7,29.66,WSW,257,6.0,0.0,80,0.00,,,0.00,vanprod-2.3,2013-02-13 18:25:00,
2013-02-13 12:30:00,27.0,21.7,29.66,WSW,257,6.0,0.0,80,0.00,,,0.00,vanprod-2.3,2013-02-13 18:30:00,
2013-02-13 12:35:00,27.0,21.7,29.66,WSW,257,6.0,0.0,80,0.00,,,0.00,vanprod-2.3,2013-02-13 18:35:00,
2013-02-13 12:40:00,35.5,26.7,29.65,WSW,253,2.0,2.0,70,0.00,,,0.00,vanprod-2.3,2013-02-13 18:40:00,
2013-02-13 12:45:00,35.4,26.9,29.65,WSW,253,1.0,1.0,71,0.00,,,0.00,vanprod-2.3,2013-02-13 18:45:00,
2013-02-13 12:50:00,35.3,26.9,29.65,WSW,253,2.0,2.0,71,0.00,,,0.00,vanprod-2.3,2013-02-13 18:50:00,
2013-02-13 12:55:00,35.3,27.2,29.65,WSW,253,2.0,3.0,72,0.00,,,0.00,vanprod-2.3,2013-02-13 18:55:00,
2013-02-13 13:00:00,35.4,27.3,29.64,WSW,253,1.0,1.0,72,0.00,,,0.00,vanprod-2.3,2013-02-13 19:00:00,
2013-02-13 13:05:00,35.8,27.3,29.64,WSW,253,1.0,2.0,71,0.00,,,0.00,vanprod-2.3,2013-02-13 19:05:00,
2013-02-13 13:10:00,36.1,26.9,29.64,WSW,253,2.0,2.0,69,0.00,,,0.00,vanprod-2.3,2013-02-13 19:10:00,
2013-02-13 13:15:00,36.4,26.9,29.64,WSW,253,1.0,1.0,68,0.00,,,0.00,vanprod-2.3,2013-02-13 19:15:00,
2013-02-13 13:20:00,36.5,26.6,29.64,WSW,253,1.0,3.0,67,0.00,,,0.00,vanprod-2.3,2013-02-13 19:20:00,
2013-02-13 13:25:00,36.8,26.9,29.63,WSW,256,2.0,2.0,67,0.00,,,0.00,vanprod-2.3,2013-02-13 19:25:00,
2013-02-13 13:30:00,37.0,27.1,29.63,WSW,256,1.0,1.0,67,0.00,,,0.00,vanprod-2.3,2013-02-13 19:30:00,
2013-02-13 13:35:00,37.0,26.7,29.63,WSW,256,1.0,0.0,66,0.00,,,0.00,vanprod-2.3,2013-02-13 19:35:00,
2013-02-13 13:40:00,36.8,26.9,29.63,WSW,256,2.0,2.0,67,0.00,,,0.00,vanprod-2.3,2013-02-13 19:40:00,
2013-02-13 13:45:00,36.8,26.9,29.62,WSW,256,1.0,0.0,67,0.00,,,0.00,vanprod-2.3,2013-02-13 19:45:00,
2013-02-13 13:50:00,37.0,27.1,29.62,WSW,256,1.0,1.0,67,0.00,,,0.00,vanprod-2.3,2013-02-13 19:50:00,
2013-02-13 13:55:00,36.8,27.2,29.62,WSW,256,1.0,3.0,68,0.00,,,0.00,vanprod-2.3,2013-02-13 19:55:00,
2013-02-13 14:00:00,36.8,26.9,29.61,WSW,256,1.0,0.0,67,0.00,,,0.00,vanprod-2.3,2013-02-13 20:00:00,
2013-02-13 14:05:00,36.8,26.9,29.61,WSW,256,1.0,0.0,67,0.00,,,0.00,vanprod-2.3,2013-02-13 20:05:00,
2013-02-13 14:10:00,36.8,26.9,29.61,WSW,256,0.0,1.0,67,0.00,,,0.00,vanprod-2.3,2013-02-13 20:10:00,
2013-02-13 14:15:00,36.7,26.8,29.61,WSW,256,3.0,3.0,67,0.00,,,0.00,vanprod-2.3,2013-02-13 20:15:00,
2013-02-13 14:20:00,36.4,26.9,29.61,WSW,256,3.0,5.0,68,0.00,,,0.00,vanprod-2.3,2013-02-13 20:20:00,
2013-02-13 14:25:00,35.8,26.6,29.61,WSW,256,4.0,5.0,69,0.00,,,0.00,vanprod-2.3,2013-02-13 20:25:00,
2013-02-13 14:30:00,35.4,26.6,29.61,WSW,256,2.0,3.0,70,0.00,,,0.00,vanprod-2.3,2013-02-13 20:30:00,
2013-02-13 14:35:00,35.1,26.7,29.61,WSW,244,2.0,2.0,71,0.00,,,0.00,vanprod-2.3,2013-02-13 20:35:00,
2013-02-13 14:40:00,35.1,26.3,29.60,WSW,243,3.0,5.0,70,0.00,,,0.00,vanprod-2.3,2013-02-13 20:40:00,
2013-02-13 14:45:00,35.1,26.3,29.60,WSW,243,1.0,1.0,70,0.00,,,0.00,vanprod-2.3,2013-02-13 20:45:00,
2013-02-13 14:50:00,35.1,26.3,29.59,WSW,243,2.0,0.0,70,0.00,,,0.00,vanprod-2.3,2013-02-13 20:50:00,
2013-02-13 14:55:00,35.3,26.9,29.59,WSW,243,1.0,0.0,71,0.00,,,0.00,vanprod-2.3,2013-02-13 20:55:00,
2013-02-13 15:00:00,35.3,27.2,29.59,WSW,243,2.0,2.0,72,0.00,,,0.00,vanprod-2.3,2013-02-13 21:00:00,
2013-02-13 15:05:00,35.1,27.3,29.58,WSW,243,1.0,0.0,73,0.00,,,0.00,vanprod-2.3,2013-02-13 21:05:00,
2013-02-13 15:10:00,35.0,27.6,29.58,WSW,243,1.0,1.0,74,0.00,,,0.00,vanprod-2.3,2013-02-13 21:10:00,
2013-02-13 15:15:00,34.8,28.0,29.58,WSW,243,1.0,2.0,76,0.00,,,0.00,vanprod-2.3,2013-02-13 21:15:00,
2013-02-13 15:20:00,34.8,27.7,29.59,WSW,237,3.0,3.0,75,0.00,,,0.00,vanprod-2.3,2013-02-13 21:20:00,
2013-02-13 15:25:00,34.7,28.2,29.59,SW,227,1.0,1.0,77,0.00,,,0.00,vanprod-2.3,2013-02-13 21:25:00,
2013-02-13 15:30:00,34.5,28.0,29.59,SW,227,0.0,1.0,77,0.00,,,0.00,vanprod-2.3,2013-02-13 21:30:00,
2013-02-13 15:35:00,34.5,28.4,29.59,SW,227,0.0,0.0,78,0.00,,,0.00,vanprod-2.3,2013-02-13 21:35:00,
2013-02-13 15:40:00,34.4,28.6,29.59,SW,227,2.0,2.0,79,0.00,,,0.00,vanprod-2.3,2013-02-13 21:40:00,
2013-02-13 15:45:00,34.4,28.9,29.59,SW,227,2.0,2.0,80,0.00,,,0.00,vanprod-2.3,2013-02-13 21:45:00,
2013-02-13 15:50:00,34.1,29.2,29.59,SW,227,2.0,2.0,82,0.00,,,0.00,vanprod-2.3,2013-02-13 21:50:00,
2013-02-13 15:55:00,33.6,29.3,29.59,SW,226,2.0,2.0,84,0.00,,,0.00,vanprod-2.3,2013-02-13 21:55:00,
2013-02-13 16:00:00,33.2,29.2,29.59,SW,227,3.0,5.0,85,0.00,,,0.00,vanprod-2.3,2013-02-13 22:00:00,
2013-02-13 16:05:00,32.9,29.5,29.59,SW,227,3.0,3.0,87,0.00,,,0.00,vanprod-2.3,2013-02-13 22:05:00,
2013-02-13 16:10:00,32.7,29.8,29.59,SSW,200,3.0,3.0,89,0.01,,,0.01,vanprod-2.3,2013-02-13 22:10:00,
2013-02-13 16:15:00,32.6,30.0,29.59,SSW,200,3.0,5.0,90,0.01,,,0.01,vanprod-2.3,2013-02-13 22:15:00,
2013-02-13 16:20:00,32.6,30.3,29.59,SSW,200,2.0,2.0,91,0.01,,,0.01,vanprod-2.3,2013-02-13 22:20:00,
2013-02-13 16:25:00,32.4,30.3,29.59,SSW,199,3.0,3.0,92,0.01,,,0.01,vanprod-2.3,2013-02-13 22:25:00,
2013-02-13 16:30:00,32.4,30.3,29.59,SSW,199,2.0,2.0,92,0.01,,,0.01,vanprod-2.3,2013-02-13 22:30:00,
2013-02-13 16:35:00,32.4,30.3,29.59,SSW,199,2.0,2.0,92,0.01,,,0.01,vanprod-2.3,2013-02-13 22:35:00,
2013-02-13 16:40:00,32.4,30.6,29.58,SSW,199,3.0,3.0,93,0.01,,,0.01,vanprod-2.3,2013-02-13 22:40:00,
2013-02-13 16:45:00,32.4,30.6,29.59,SSW,199,2.0,2.0,93,0.01,,,0.01,vanprod-2.3,2013-02-13 22:45:00,
2013-02-13 16:50:00,32.4,30.6,29.58,SSW,199,2.0,3.0,93,0.01,,,0.01,vanprod-2.3,2013-02-13 22:50:00,
2013-02-13 16:55:00,32.4,30.6,29.58,SSW,199,2.0,3.0,93,0.01,,,0.01,vanprod-2.3,2013-02-13 22:55:00,
2013-02-13 17:00:00,32.4,30.6,29.58,SSW,199,2.0,4.0,93,0.01,,,0.01,vanprod-2.3,2013-02-13 23:00:00,
2013-02-13 17:05:00,32.3,30.8,29.58,SSW,199,2.0,3.0,94,0.01,,,0.01,vanprod-2.3,2013-02-13 23:05:00,
2013-02-13 17:10:00,32.2,30.7,29.58,SSW,199,2.0,3.0,94,0.00,,,0.01,vanprod-2.3,2013-02-13 23:10:00,
2013-02-13 17:15:00,32.2,30.7,29.58,SSW,198,1.0,2.0,94,0.00,,,0.01,vanprod-2.3,2013-02-13 23:15:00,
2013-02-13 17:20:00,32.0,30.5,29.58,SSW,198,3.0,3.0,94,0.00,,,0.01,vanprod-2.3,2013-02-13 23:20:00,
2013-02-13 17:25:00,32.0,30.5,29.58,SSW,198,3.0,3.0,94,0.00,,,0.01,vanprod-2.3,2013-02-13 23:25:00,
2013-02-13 17:30:00,32.0,30.5,29.58,SSW,198,2.0,2.0,94,0.00,,,0.01,vanprod-2.3,2013-02-13 23:30:00,
2013-02-13 17:35:00,32.0,30.7,29.58,SSW,198,1.0,1.0,95,0.00,,,0.01,vanprod-2.3,2013-02-13 23:35:00,
2013-02-13 17:40:00,32.0,30.7,29.58,SSW,198,0.0,1.0,95,0.00,,,0.01,vanprod-2.3,2013-02-13 23:40:00,
2013-02-13 17:45:00,32.0,30.7,29.57,SSW,198,2.0,2.0,95,0.00,,,0.01,vanprod-2.3,2013-02-13 23:45:00,
2013-02-13 17:50:00,32.0,30.7,29.58,SSW,198,0.0,0.0,95,0.00,,,0.01,vanprod-2.3,2013-02-13 23:50:00,
2013-02-13 17:55:00,32.0,30.7,29.58,SSW,198,0.0,0.0,95,0.00,,,0.01,vanprod-2.3,2013-02-13 23:55:00,
2013-02-13 18:00:00,32.0,30.7,29.58,SSW,198,0.0,0.0,95,0.00,,,0.01,vanprod-2.3,2013-02-14 00:00:00,
2013-02-13 18:05:00,32.0,30.7,29.58,SSW,198,1.0,0.0,95,0.00,,,0.01,vanprod-2.3,2013-02-14 00:05:00,
2013-02-13 18:10:00,32.0,30.7,29.58,SSW,198,0.0,2.0,95,0.00,,,0.01,vanprod-2.3,2013-02-14 00:10:00,
2013-02-13 18:15:00,32.0,30.7,29.57,SSW,198,1.0,2.0,95,0.00,,,0.01,vanprod-2.3,2013-02-14 00:15:00,
2013-02-13 18:20:00,32.0,30.7,29.57,SSW,198,0.0,2.0,95,0.00,,,0.01,vanprod-2.3,2013-02-14 00:20:00,
2013-02-13 18:25:00,32.0,30.7,29.57,SSW,198,1.0,3.0,95,0.00,,,0.01,vanprod-2.3,2013-02-14 00:25:00,
2013-02-13 18:30:00,32.2,30.9,29.58,SSW,198,0.0,1.0,95,0.00,,,0.01,vanprod-2.3,2013-02-14 00:30:00,
2013-02-13 18:35:00,32.2,30.9,29.57,SSW,198,1.0,0.0,95,0.00,,,0.01,vanprod-2.3,2013-02-14 00:35:00,
2013-02-13 18:40:00,32.0,30.7,29.57,SSW,198,0.0,0.0,95,0.00,,,0.01,vanprod-2.3,2013-02-14 00:40:00,
2013-02-13 18:45:00,32.2,30.9,29.57,SSW,198,1.0,0.0,95,0.00,,,0.01,vanprod-2.3,2013-02-14 00:45:00,
2013-02-13 18:50:00,32.2,30.9,29.57,SSW,198,0.0,0.0,95,0.00,,,0.01,vanprod-2.3,2013-02-14 00:50:00,
2013-02-13 18:55:00,32.2,30.9,29.57,SSW,198,0.0,0.0,95,0.00,,,0.01,vanprod-2.3,2013-02-14 00:55:00,
2013-02-13 19:00:00,32.2,30.9,29.57,SSW,198,0.0,0.0,95,0.00,,,0.01,vanprod-2.3,2013-02-14 01:00:00,
2013-02-13 19:05:00,32.2,30.9,29.57,SSW,198,0.0,0.0,95,0.00,,,0.01,vanprod-2.3,2013-02-14 01:05:00,
2013-02-13 19:10:00,32.2,30.9,29.57,SSW,198,0.0,0.0,95,0.00,,,0.01,vanprod-2.3,2013-02-14 01:10:00,
2013-02-13 19:15:00,32.3,31.0,29.57,SSW,198,1.0,3.0,95,0.00,,,0.01,vanprod-2.3,2013-02-14 01:15:00,
2013-02-13 19:20:00,32.4,31.1,29.57,SSW,198,0.0,1.0,95,0.00,,,0.01,vanprod-2.3,2013-02-14 01:20:00,
2013-02-13 19:25:00,32.4,31.1,29.57,SSW,198,0.0,0.0,95,0.00,,,0.01,vanprod-2.3,2013-02-14 01:25:00,
2013-02-13 19:30:00,32.6,31.3,29.58,SSW,198,1.0,4.0,95,0.00,,,0.01,vanprod-2.3,2013-02-14 01:30:00,
2013-02-13 19:35:00,32.6,31.3,29.58,SSW,202,1.0,0.0,95,0.00,,,0.01,vanprod-2.3,2013-02-14 01:35:00,
2013-02-13 19:40:00,32.7,31.4,29.58,SSW,202,1.0,0.0,95,0.00,,,0.01,vanprod-2.3,2013-02-14 01:40:00,
2013-02-13 19:45:00,32.9,31.4,29.58,SSW,202,1.0,1.0,94,0.00,,,0.01,vanprod-2.3,2013-02-14 01:45:00,
2013-02-13 19:50:00,33.0,31.5,29.58,SSW,203,1.0,3.0,94,0.00,,,0.01,vanprod-2.3,2013-02-14 01:50:00,
2013-02-13 19:55:00,33.2,31.7,29.58,SW,217,1.0,2.0,94,0.00,,,0.01,vanprod-2.3,2013-02-14 01:55:00,
2013-02-13 20:00:00,33.3,31.5,29.58,SW,222,2.0,3.0,93,0.00,,,0.01,vanprod-2.3,2013-02-14 02:00:00,
2013-02-13 20:05:00,33.3,31.5,29.58,SW,222,1.0,1.0,93,0.00,,,0.01,vanprod-2.3,2013-02-14 02:05:00,
2013-02-13 20:10:00,33.5,31.7,29.58,West,263,3.0,0.0,93,0.00,,,0.01,vanprod-2.3,2013-02-14 02:10:00,
2013-02-13 20:15:00,33.5,31.7,29.58,West,268,3.0,3.0,93,0.00,,,0.01,vanprod-2.3,2013-02-14 02:15:00,
2013-02-13 20:20:00,33.6,31.5,29.58,West,270,3.0,3.0,92,0.00,,,0.01,vanprod-2.3,2013-02-14 02:20:00,
2013-02-13 20:25:00,33.5,31.4,29.58,WNW,295,7.0,7.0,92,0.00,,,0.01,vanprod-2.3,2013-02-14 02:25:00,
2013-02-13 20:30:00,33.5,31.2,29.59,WNW,300,3.0,4.0,91,0.00,,,0.01,vanprod-2.3,2013-02-14 02:30:00,
2013-02-13 20:35:00,33.3,30.7,29.59,NW,308,5.0,11.0,90,0.00,,,0.01,vanprod-2.3,2013-02-14 02:35:00,
2013-02-13 20:40:00,33.2,30.3,29.59,NW,316,7.0,8.0,89,0.00,,,0.01,vanprod-2.3,2013-02-14 02:40:00,
2013-02-13 20:45:00,33.0,30.1,29.59,NW,308,3.0,3.0,89,0.00,,,0.01,vanprod-2.3,2013-02-14 02:45:00,
2013-02-13 20:50:00,32.9,30.0,29.60,NW,320,5.0,6.0,89,0.00,,,0.01,vanprod-2.3,2013-02-14 02:50:00,
2013-02-13 20:55:00,32.6,29.7,29.60,NNW,330,4.0,4.0,89,0.00,,,0.01,vanprod-2.3,2013-02-14 02:55:00,
2013-02-13 21:00:00,32.4,29.5,29.60,NW,313,3.0,6.0,89,0.00,,,0.01,vanprod-2.3,2013-02-14 03:00:00,
2013-02-13 21:05:00,32.2,29.3,29.60,NNW,338,3.0,3.0,89,0.00,,,0.01,vanprod-2.3,2013-02-14 03:05:00,
2013-02-13 21:10:00,31.9,29.3,29.61,NNW,330,4.0,10.0,90,0.00,,,0.01,vanprod-2.3,2013-02-14 03:10:00,
2013-02-13 21:15:00,31.7,29.1,29.61,NW,322,5.0,5.0,90,0.00,,,0.01,vanprod-2.3,2013-02-14 03:15:00,
2013-02-13 21:20:00,31.6,29.3,29.61,NW,311,5.0,8.0,91,0.00,,,0.01,vanprod-2.3,2013-02-14 03:20:00,
2013-02-13 21:25:00,31.4,29.1,29.61,North,357,3.0,3.0,91,0.00,,,0.01,vanprod-2.3,2013-02-14 03:25:00,
2013-02-13 21:30:00,31.4,29.1,29.61,NNW,329,4.0,4.0,91,0.00,,,0.01,vanprod-2.3,2013-02-14 03:30:00,
2013-02-13 21:35:00,31.3,29.0,29.62,North,354,5.0,12.0,91,0.00,,,0.01,vanprod-2.3,2013-02-14 03:35:00,
2013-02-13 21:40:00,31.1,28.8,29.62,NW,322,6.0,6.0,91,0.00,,,0.01,vanprod-2.3,2013-02-14 03:40:00,
2013-02-13 21:45:00,30.8,28.5,29.63,NNW,346,5.0,7.0,91,0.00,,,0.01,vanprod-2.3,2013-02-14 03:45:00,
2013-02-13 21:50:00,30.5,28.2,29.63,North,356,5.0,5.0,91,0.00,,,0.01,vanprod-2.3,2013-02-14 03:50:00,
2013-02-13 21:55:00,30.4,28.1,29.63,North,357,3.0,5.0,91,0.00,,,0.01,vanprod-2.3,2013-02-14 03:55:00,
2013-02-13 22:00:00,30.1,28.1,29.63,NW,324,5.0,11.0,92,0.00,,,0.01,vanprod-2.3,2013-02-14 04:00:00,
2013-02-13 22:05:00,29.8,27.8,29.63,NW,312,4.0,9.0,92,0.00,,,0.01,vanprod-2.3,2013-02-14 04:05:00,
2013-02-13 22:10:00,29.8,27.8,29.64,NW,315,4.0,7.0,92,0.00,,,0.01,vanprod-2.3,2013-02-14 04:10:00,
2013-02-13 22:15:00,29.6,27.8,29.64,NW,305,5.0,8.0,93,0.00,,,0.01,vanprod-2.3,2013-02-14 04:15:00,
2013-02-13 22:20:00,29.5,27.7,29.64,NNW,340,5.0,8.0,93,0.00,,,0.01,vanprod-2.3,2013-02-14 04:20:00,
2013-02-13 22:25:00,29.3,27.5,29.64,NW,309,6.0,7.0,93,0.00,,,0.01,vanprod-2.3,2013-02-14 04:25:00,
2013-02-13 22:30:00,29.2,27.7,29.64,WNW,302,4.0,8.0,94,0.00,,,0.01,vanprod-2.3,2013-02-14 04:30:00,
2013-02-13 22:35:00,29.0,27.5,29.65,WNW,289,4.0,4.0,94,0.00,,,0.01,vanprod-2.3,2013-02-14 04:35:00,
2013-02-13 22:40:00,29.0,27.5,29.65,WNW,298,2.0,3.0,94,0.00,,,0.01,vanprod-2.3,2013-02-14 04:40:00,
2013-02-13 22:45:00,28.9,27.4,29.66,NW,318,3.0,7.0,94,0.00,,,0.01,vanprod-2.3,2013-02-14 04:45:00,
2013-02-13 22:50:00,28.9,27.4,29.66,NW,325,2.0,3.0,94,0.00,,,0.01,vanprod-2.3,2013-02-14 04:50:00,
2013-02-13 22:55:00,28.9,27.4,29.66,NW,319,5.0,7.0,94,0.00,,,0.01,vanprod-2.3,2013-02-14 04:55:00,
2013-02-13 23:00:00,29.0,27.7,29.66,NNW,334,4.0,6.0,95,0.01,,,0.02,vanprod-2.3,2013-02-14 05:00:00,
2013-02-13 23:05:00,29.0,27.7,29.66,NNW,342,4.0,4.0,95,0.01,,,0.02,vanprod-2.3,2013-02-14 05:05:00,
2013-02-13 23:10:00,29.0,27.7,29.66,North,349,4.0,4.0,95,0.01,,,0.02,vanprod-2.3,2013-02-14 05:10:00,
2013-02-13 23:15:00,29.0,27.7,29.67,NNW,347,3.0,6.0,95,0.01,,,0.02,vanprod-2.3,2013-02-14 05:15:00,
2013-02-13 23:20:00,29.0,27.5,29.67,NNW,337,5.0,6.0,94,0.01,,,0.02,vanprod-2.3,2013-02-14 05:20:00,
2013-02-13 23:25:00,28.9,27.4,29.67,NW,325,5.0,7.0,94,0.01,,,0.02,vanprod-2.3,2013-02-14 05:25:00,
2013-02-13 23:30:00,28.9,27.4,29.68,NW,318,6.0,6.0,94,0.01,,,0.02,vanprod-2.3,2013-02-14 05:30:00,
2013-02-13 23:35:00,28.8,27.3,29.68,North,352,5.0,5.0,94,0.01,,,0.02,vanprod-2.3,2013-02-14 05:35:00,
2013-02-13 23:40:00,28.6,27.1,29.68,North,356,4.0,4.0,94,0.01,,,0.02,vanprod-2.3,2013-02-14 05:40:00,
2013-02-13 23:45:00,28.5,27.0,29.69,NNW,332,5.0,5.0,94,0.01,,,0.02,vanprod-2.3,2013-02-14 05:45:00,
2013-02-13 23:50:00,28.3,26.5,29.69,WNW,282,5.0,5.0,93,0.01,,,0.02,vanprod-2.3,2013-02-14 05:50:00,
2013-02-13 23:55:00,28.3,26.5,29.69,WNW,294,5.0,6.0,93,0.01,,,0.02,vanprod-2.3,2013-02-14 05:55:00,